createdAt,value
2018-11-28T00:01:36.727Z,1.47
2018-11-28T00:04:05.949Z,1.60
2018-11-28T00:06:34.766Z,1.57
2018-11-28T00:09:02.991Z,1.10
2018-11-28T00:11:31.037Z,1.23
2018-11-28T00:13:59.310Z,1.47
2018-11-28T00:16:27.416Z,1.07
2018-11-28T00:18:55.440Z,1.20
2018-11-28T00:21:24.569Z,1.60
2018-11-28T00:23:53.122Z,1.60
2018-11-28T00:26:21.168Z,1.20
2018-11-28T00:28:49.207Z,1.50
2018-11-28T00:31:17.345Z,1.80
2018-11-28T00:33:45.416Z,1.30
2018-11-28T00:36:13.370Z,1.60
2018-11-28T00:38:42.399Z,0.90
2018-11-28T00:41:10.326Z,0.90
2018-11-28T00:43:38.359Z,1.10
2018-11-28T00:46:06.795Z,1.00
2018-11-28T00:48:34.850Z,0.97
2018-11-28T00:51:03.770Z,1.10
2018-11-28T00:53:32.436Z,0.90
2018-11-28T00:56:00.482Z,1.33
2018-11-28T00:58:28.662Z,1.03
2018-11-28T01:00:56.628Z,1.00
2018-11-28T01:03:24.559Z,0.70
2018-11-28T01:05:52.571Z,1.10
2018-11-28T01:08:21.132Z,1.33
2018-11-28T01:10:49.211Z,1.53
2018-11-28T01:13:17.235Z,1.20
2018-11-28T01:15:45.365Z,0.90
2018-11-28T01:18:13.576Z,1.20
2018-11-28T01:20:41.553Z,0.80
2018-11-28T01:23:09.637Z,0.60
2018-11-28T01:25:37.583Z,0.57
2018-11-28T01:28:06.780Z,0.60
2018-11-28T01:30:35.002Z,0.67
2018-11-28T01:33:02.914Z,0.47
2018-11-28T01:35:30.871Z,0.60
2018-11-28T01:37:58.836Z,0.90
2018-11-28T01:40:26.852Z,0.80
2018-11-28T01:42:54.776Z,0.70
2018-11-28T01:45:23.488Z,0.77
2018-11-28T01:47:51.428Z,1.10
2018-11-28T01:50:20.174Z,1.10
2018-11-28T01:52:48.120Z,0.80
2018-11-28T01:55:17.013Z,1.37
2018-11-28T01:57:44.932Z,1.20
2018-11-28T02:00:18.908Z,1.90
2018-11-28T02:02:47.789Z,1.90
2018-11-28T02:05:15.720Z,1.63
2018-11-28T02:07:43.859Z,1.70
2018-11-28T02:10:13.479Z,1.10
2018-11-28T02:12:41.487Z,1.20
2018-11-28T02:15:11.803Z,1.20
2018-11-28T02:17:39.763Z,0.70
2018-11-28T02:20:11.607Z,0.80
2018-11-28T02:22:39.757Z,0.90
2018-11-28T02:25:09.224Z,0.60
2018-11-28T02:27:37.260Z,0.70
2018-11-28T02:30:07.914Z,0.87
2018-11-28T02:32:35.886Z,1.53
2018-11-28T02:35:04.195Z,1.10
2018-11-28T02:37:32.120Z,1.90
2018-11-28T02:40:00.259Z,1.10
2018-11-28T02:42:28.252Z,1.00
2018-11-28T02:44:56.271Z,0.83
2018-11-28T02:47:24.293Z,1.43
2018-11-28T02:49:52.401Z,0.80
2018-11-28T02:52:21.620Z,1.03
2018-11-28T02:54:49.573Z,0.50
2018-11-28T02:57:19.125Z,0.80
2018-11-28T02:59:47.129Z,0.60
2018-11-28T03:02:15.008Z,0.73
2018-11-28T03:04:43.008Z,0.60
2018-11-28T03:07:11.038Z,0.70
2018-11-28T03:09:39.736Z,0.57
2018-11-28T03:12:07.681Z,0.60
2018-11-28T03:14:35.704Z,0.60
2018-11-28T03:17:03.683Z,0.57
2018-11-28T03:19:31.646Z,0.80
2018-11-28T03:21:59.564Z,0.73
2018-11-28T03:24:27.593Z,0.80
2018-11-28T03:26:55.770Z,0.93
2018-11-28T03:29:23.828Z,1.47
2018-11-28T03:31:51.959Z,1.27
2018-11-28T03:34:20.198Z,1.80
2018-11-28T03:36:48.370Z,1.60
2018-11-28T03:39:16.376Z,1.70
2018-11-28T03:41:44.263Z,3.07
2018-11-28T03:44:12.167Z,2.80
2018-11-28T03:46:40.054Z,2.60
2018-11-28T03:49:07.988Z,2.07
2018-11-28T03:51:36.951Z,0.93
2018-11-28T03:54:05.236Z,0.93
2018-11-28T03:56:33.113Z,2.20
2018-11-28T03:59:01.037Z,0.80
2018-11-28T04:01:28.929Z,0.90
2018-11-28T04:03:56.805Z,1.37
2018-11-28T04:06:24.753Z,1.20
2018-11-28T04:08:52.644Z,1.10
2018-11-28T04:11:20.591Z,1.10
2018-11-28T04:13:49.322Z,1.60
2018-11-28T04:16:17.291Z,1.00
2018-11-28T04:18:46.077Z,1.30
2018-11-28T04:21:14.087Z,1.63
2018-11-28T04:23:42.090Z,1.30
2018-11-28T04:26:10.731Z,1.33
2018-11-28T04:28:38.937Z,1.93
2018-11-28T04:31:07.122Z,1.83
2018-11-28T04:33:35.125Z,2.47
2018-11-28T04:36:03.115Z,1.33
2018-11-28T04:38:31.193Z,1.30
2018-11-28T04:40:59.249Z,1.37
2018-11-28T04:43:27.290Z,1.47
2018-11-28T04:45:55.295Z,2.13
2018-11-28T04:48:23.345Z,1.40
2018-11-28T04:50:51.414Z,1.17
2018-11-28T04:53:19.406Z,1.57
2018-11-28T04:55:47.426Z,1.20
2018-11-28T04:58:15.551Z,1.37
2018-11-28T05:00:43.528Z,1.13
2018-11-28T05:03:11.683Z,1.20
2018-11-28T05:05:39.824Z,1.53
2018-11-28T05:08:07.932Z,2.27
2018-11-28T05:10:35.988Z,1.90
2018-11-28T05:13:04.017Z,1.87
2018-11-28T05:15:33.004Z,1.97
2018-11-28T05:18:01.101Z,2.03
2018-11-28T05:20:32.016Z,2.40
2018-11-28T05:23:01.532Z,2.90
2018-11-28T05:25:29.552Z,2.70
2018-11-28T05:27:58.339Z,2.70
2018-11-28T05:30:29.862Z,3.03
2018-11-28T05:32:58.003Z,2.57
2018-11-28T05:35:45.891Z,4.40
2018-11-28T05:38:14.915Z,2.37
2018-11-28T05:40:43.593Z,2.90
2018-11-28T05:43:12.616Z,2.53
2018-11-28T05:45:40.654Z,2.73
2018-11-28T05:48:08.706Z,1.90
2018-11-28T05:50:36.979Z,2.63
2018-11-28T05:53:04.969Z,1.80
2018-11-28T05:55:33.641Z,1.80
2018-11-28T05:58:01.625Z,3.70
2018-11-28T06:00:39.443Z,2.37
2018-11-28T06:03:09.325Z,3.50
2018-11-28T06:05:37.380Z,2.50
2018-11-28T06:08:06.696Z,3.10
2018-11-28T06:10:34.745Z,3.30
2018-11-28T06:13:03.146Z,3.53
2018-11-28T06:15:31.225Z,2.70
2018-11-28T06:17:59.185Z,3.77
2018-11-28T06:20:27.833Z,2.27
2018-11-28T06:22:56.230Z,2.77
2018-11-28T06:25:24.104Z,3.83
2018-11-28T06:27:52.127Z,2.80
2018-11-28T06:30:20.603Z,1.97
2018-11-28T06:32:51.354Z,2.50
2018-11-28T06:35:16.771Z,2.23
2018-11-28T06:37:45.780Z,2.73
2018-11-28T06:40:16.188Z,4.43
2018-11-28T06:42:45.386Z,6.00
2018-11-28T06:45:14.519Z,8.00
2018-11-28T06:47:42.583Z,6.67
2018-11-28T06:50:14.438Z,6.97
2018-11-28T06:52:42.892Z,5.63
2018-11-28T06:55:13.050Z,6.03
2018-11-28T06:57:40.964Z,6.03
2018-11-28T07:00:14.123Z,7.60
2018-11-28T07:02:42.369Z,7.90
2018-11-28T07:05:11.092Z,5.83
2018-11-28T07:07:39.299Z,4.67
2018-11-28T07:10:11.350Z,5.53
2018-11-28T07:12:39.599Z,5.70
2018-11-28T07:15:13.331Z,7.17
2018-11-28T07:17:42.134Z,4.93
2018-11-28T07:20:12.134Z,4.70
2018-11-28T07:22:40.135Z,4.83
2018-11-28T07:25:09.409Z,7.10
2018-11-28T07:27:37.624Z,6.70
2018-11-28T07:30:12.073Z,7.20
2018-11-28T07:32:40.068Z,7.87
2018-11-28T07:35:08.897Z,12.77
2018-11-28T07:37:38.216Z,10.20
2018-11-28T07:40:09.964Z,8.87
2018-11-28T07:42:38.160Z,11.10
2018-11-28T07:45:10.045Z,11.37
2018-11-28T07:47:38.061Z,12.03
2018-11-28T07:50:07.243Z,8.57
2018-11-28T07:52:35.254Z,8.63
2018-11-28T07:55:03.239Z,8.63
2018-11-28T07:57:31.274Z,8.27
2018-11-28T07:59:59.942Z,7.93
2018-11-28T08:05:31.572Z,12.70
2018-11-28T08:08:00.234Z,11.60
2018-11-28T08:10:31.137Z,10.93
2018-11-28T08:12:59.930Z,10.53
2018-11-28T08:18:49.092Z,6.27
2018-11-28T08:24:16.175Z,5.67
2018-11-28T08:26:44.317Z,6.83
2018-11-28T08:29:13.223Z,5.10
2018-11-28T08:31:44.439Z,5.47
2018-11-28T08:34:13.560Z,6.47
2018-11-28T08:36:43.684Z,6.30
2018-11-28T08:39:11.685Z,6.00
2018-11-28T08:41:39.563Z,7.73
2018-11-28T08:44:08.424Z,5.90
2018-11-28T08:46:44.108Z,6.47
2018-11-28T08:49:13.322Z,7.97
2018-11-28T08:51:42.319Z,10.87
2018-11-28T08:54:14.241Z,11.43
2018-11-28T08:56:42.346Z,10.70
2018-11-28T08:59:11.308Z,11.90
2018-11-28T09:01:40.273Z,11.87
2018-11-28T09:04:09.340Z,8.77
2018-11-28T09:06:37.802Z,7.10
2018-11-28T09:09:07.927Z,6.40
2018-11-28T09:11:37.724Z,8.23
2018-11-28T09:14:06.698Z,8.23
2018-11-28T09:16:35.008Z,6.90
2018-11-28T09:19:03.097Z,6.93
2018-11-28T09:21:31.474Z,5.20
2018-11-28T09:24:00.463Z,5.57
2018-11-28T09:26:40.925Z,6.40
2018-11-28T09:29:10.476Z,7.10
2018-11-28T09:31:38.603Z,6.37
2018-11-28T09:34:19.293Z,8.53
2018-11-28T09:36:56.281Z,9.43
2018-11-28T09:39:25.358Z,6.20
2018-11-28T09:41:54.002Z,6.03
2018-11-28T09:44:22.209Z,7.30
2018-11-28T09:46:51.694Z,6.20
2018-11-28T09:49:22.098Z,6.50
2018-11-28T09:51:50.353Z,9.17
2018-11-28T09:54:18.484Z,9.53
2018-11-28T09:56:47.748Z,10.50
2018-11-28T09:59:19.630Z,9.70
2018-11-28T10:02:03.444Z,9.00
2018-11-28T10:04:31.390Z,4.70
2018-11-28T10:06:59.544Z,4.97
2018-11-28T10:09:27.592Z,4.17
2018-11-28T10:11:57.639Z,4.00
2018-11-28T10:14:26.434Z,4.97
2018-11-28T10:16:55.231Z,4.77
2018-11-28T10:19:23.459Z,5.03
2018-11-28T10:21:52.525Z,4.80
2018-11-28T10:24:21.875Z,8.83
2018-11-28T10:26:50.291Z,7.70
2018-11-28T10:29:19.476Z,8.40
2018-11-28T10:31:49.363Z,6.73
2018-11-28T10:34:17.311Z,8.40
2018-11-28T10:36:45.662Z,5.33
2018-11-28T10:39:13.872Z,6.27
2018-11-28T10:41:43.319Z,6.13
2018-11-28T10:44:11.449Z,7.07
2018-11-28T10:46:41.717Z,6.53
2018-11-28T10:49:10.409Z,6.43
2018-11-28T10:51:39.586Z,5.43
2018-11-28T10:54:08.154Z,9.37
2018-11-28T10:56:37.158Z,8.50
2018-11-28T10:59:10.962Z,8.13
2018-11-28T11:01:44.490Z,8.03
2018-11-28T11:04:15.023Z,11.17
2018-11-28T11:06:48.727Z,9.17
2018-11-28T11:09:22.515Z,8.20
2018-11-28T11:11:56.326Z,8.87
2018-11-28T11:14:29.716Z,10.47
2018-11-28T11:17:02.669Z,10.63
2018-11-28T11:19:36.693Z,11.97
2018-11-28T11:22:05.740Z,9.03
2018-11-28T11:24:33.999Z,9.57
2018-11-28T11:27:04.192Z,8.70
2018-11-28T11:29:33.360Z,9.73
2018-11-28T11:32:01.457Z,9.30
2018-11-28T11:34:29.736Z,6.30
2018-11-28T11:36:58.172Z,7.70
2018-11-28T11:39:26.165Z,6.47
2018-11-28T11:41:55.088Z,8.30
2018-11-28T11:44:23.376Z,7.77
2018-11-28T11:46:51.542Z,12.50
2018-11-28T11:49:20.137Z,8.60
2018-11-28T11:51:48.132Z,8.13
2018-11-28T11:54:16.117Z,6.23
2018-11-28T11:56:44.168Z,6.20
2018-11-28T11:59:12.188Z,8.03
2018-11-28T12:01:40.200Z,10.73
2018-11-28T12:04:08.373Z,5.67
2018-11-28T12:06:36.526Z,5.03
2018-11-28T12:09:07.332Z,5.47
2018-11-28T12:11:37.082Z,4.87
2018-11-28T12:14:05.857Z,5.87
2018-11-28T12:16:34.789Z,7.93
2018-11-28T12:19:03.110Z,12.07
2018-11-28T12:21:31.473Z,11.33
2018-11-28T12:23:59.806Z,7.97
2018-11-28T12:26:28.026Z,7.03
2018-11-28T12:28:56.556Z,10.63
2018-11-28T12:31:25.665Z,7.43
2018-11-28T12:33:53.761Z,9.20
2018-11-28T12:36:22.198Z,8.17
2018-11-28T12:38:51.819Z,7.53
2018-11-28T12:44:30.371Z,5.53
2018-11-28T12:47:05.838Z,6.37
2018-11-28T12:49:33.917Z,6.93
2018-11-28T12:52:02.048Z,7.40
2018-11-28T12:55:36.385Z,9.57
2018-11-28T12:58:05.322Z,7.10
2018-11-28T13:00:36.695Z,4.50
2018-11-28T13:03:12.421Z,8.93
2018-11-28T13:05:40.661Z,7.50
2018-11-28T13:11:20.693Z,10.47
2018-11-28T13:13:54.570Z,6.97
2018-11-28T13:19:26.832Z,7.27
2018-11-28T13:21:55.397Z,9.97
2018-11-28T13:24:23.825Z,7.17
2018-11-28T13:26:52.575Z,7.33
2018-11-28T13:29:20.507Z,6.83
2018-11-28T13:31:50.296Z,4.83
2018-11-28T13:34:19.355Z,5.03
2018-11-28T13:36:47.340Z,7.40
2018-11-28T13:39:31.188Z,7.07
2018-11-28T13:41:59.713Z,7.03
2018-11-28T13:44:27.851Z,7.60
2018-11-28T13:46:56.060Z,8.80
2018-11-28T13:49:24.395Z,10.40
2018-11-28T13:51:52.821Z,6.40
2018-11-28T13:54:21.939Z,7.70
2018-11-28T13:57:06.104Z,8.17
2018-11-28T13:59:18.128Z,7.73
2018-11-28T14:01:47.125Z,9.47
2018-11-28T14:04:15.343Z,9.00
2018-11-28T14:06:44.106Z,6.30
2018-11-28T14:09:12.448Z,5.90
2018-11-28T14:11:40.574Z,5.30
2018-11-28T14:14:08.585Z,3.80
2018-11-28T14:16:36.575Z,3.70
2018-11-28T14:19:04.820Z,4.07
2018-11-28T14:21:33.048Z,6.87
2018-11-28T14:24:00.979Z,6.10
2018-11-28T14:26:29.112Z,4.47
2018-11-28T14:28:57.129Z,3.23
2018-11-28T14:31:26.194Z,2.23
2018-11-28T14:33:54.124Z,3.23
2018-11-28T14:36:22.298Z,3.60
2018-11-28T14:38:50.238Z,1.90
2018-11-28T14:41:18.455Z,3.70
2018-11-28T14:43:47.168Z,4.60
2018-11-28T14:46:15.532Z,5.97
2018-11-28T14:48:43.550Z,4.53
2018-11-28T14:51:11.573Z,6.17
2018-11-28T14:53:50.200Z,8.67
2018-11-28T14:56:19.774Z,8.20
2018-11-28T14:58:47.917Z,6.27
2018-11-28T15:01:17.827Z,8.03
2018-11-28T15:03:46.723Z,11.40
2018-11-28T15:06:21.924Z,8.93
2018-11-28T15:08:50.009Z,8.60
2018-11-28T15:11:18.128Z,7.53
2018-11-28T15:13:46.064Z,4.97
2018-11-28T15:16:14.146Z,7.87
2018-11-28T15:18:42.166Z,11.17
2018-11-28T15:21:10.857Z,11.80
2018-11-28T15:23:39.495Z,11.17
2018-11-28T15:26:07.556Z,8.53
2018-11-28T15:28:35.624Z,5.27
2018-11-28T15:31:03.888Z,7.00
2018-11-28T15:33:31.942Z,8.67
2018-11-28T15:36:00.191Z,7.97
2018-11-28T15:38:29.251Z,7.33
2018-11-28T15:40:57.706Z,11.33
2018-11-28T15:43:26.127Z,9.63
2018-11-28T15:45:56.469Z,10.13
2018-11-28T15:48:24.759Z,10.43
2018-11-28T15:50:53.449Z,8.87
2018-11-28T15:53:22.892Z,14.07
2018-11-28T15:55:51.259Z,11.23
2018-11-28T15:58:19.558Z,9.57
2018-11-28T16:00:48.050Z,13.63
2018-11-28T16:03:34.757Z,14.57
2018-11-28T16:12:09.099Z,10.33
2018-11-28T16:14:48.833Z,13.23
2018-11-28T16:17:25.191Z,11.83
2018-11-28T16:20:01.879Z,9.53
2018-11-28T16:22:32.994Z,8.33
2018-11-28T16:25:03.040Z,10.03
2018-11-28T16:27:41.579Z,13.23
2018-11-28T16:30:11.777Z,10.47
2018-11-28T16:32:42.108Z,11.13
2018-11-28T16:35:21.431Z,12.70
2018-11-28T16:37:57.959Z,10.83
2018-11-28T16:40:26.383Z,6.73
2018-11-28T16:43:03.119Z,9.07
2018-11-28T16:45:44.576Z,10.97
2018-11-28T16:48:17.590Z,13.33
2018-11-28T16:50:46.969Z,15.47
2018-11-28T16:53:15.112Z,17.73
2018-11-28T16:55:43.089Z,19.23
2018-11-28T16:58:11.130Z,10.73
2018-11-28T17:00:41.283Z,6.70
2018-11-28T17:03:09.465Z,7.10
2018-11-28T17:05:38.504Z,9.90
2018-11-28T17:08:08.759Z,4.17
2018-11-28T17:10:42.307Z,3.40
2018-11-28T17:13:11.129Z,6.87
2018-11-28T17:18:23.150Z,4.40
2018-11-28T17:20:53.958Z,4.27
2018-11-28T17:23:25.396Z,3.93
2018-11-28T17:26:27.662Z,3.73
2018-11-28T17:29:00.605Z,3.43
2018-11-28T17:31:44.106Z,3.97
2018-11-28T17:34:21.188Z,4.10
2018-11-28T17:36:56.234Z,14.37
2018-11-28T17:39:24.355Z,6.87
2018-11-28T17:41:52.500Z,11.30
2018-11-28T17:44:20.438Z,6.27
2018-11-28T17:46:48.444Z,6.57
2018-11-28T17:49:16.631Z,5.20
2018-11-28T17:51:44.620Z,4.73
2018-11-28T17:54:12.595Z,3.40
2018-11-28T17:56:40.721Z,3.27
2018-11-28T17:59:08.707Z,3.37
2018-11-28T18:01:36.683Z,5.40
2018-11-28T18:04:16.942Z,6.30
2018-11-28T18:06:45.679Z,5.90
2018-11-28T18:09:13.788Z,6.23
2018-11-28T18:11:41.845Z,6.17
2018-11-28T18:14:11.927Z,10.67
2018-11-28T18:16:40.028Z,11.50
2018-11-28T18:19:08.708Z,7.17
2018-11-28T18:21:36.839Z,5.37
2018-11-28T18:24:05.223Z,7.03
2018-11-28T18:26:33.181Z,11.57
2018-11-28T18:29:01.309Z,9.50
2018-11-28T18:31:29.346Z,10.13
2018-11-28T18:33:57.402Z,7.77
2018-11-28T18:36:25.347Z,9.60
2018-11-28T18:38:53.399Z,9.33
2018-11-28T18:41:21.422Z,7.00
2018-11-28T18:43:49.873Z,8.10
2018-11-28T18:46:18.270Z,9.47
2018-11-28T18:48:46.395Z,9.43
2018-11-28T18:51:14.411Z,10.30
2018-11-28T18:53:42.506Z,9.53
2018-11-28T18:56:10.511Z,9.57
2018-11-28T18:58:40.550Z,6.13
2018-11-28T19:01:08.623Z,6.67
2018-11-28T19:03:36.791Z,6.67
2018-11-28T19:06:04.875Z,5.30
2018-11-28T19:08:32.919Z,5.77
2018-11-28T19:11:02.479Z,5.47
2018-11-28T19:13:30.106Z,5.73
2018-11-28T19:15:58.277Z,5.77
2018-11-28T19:18:27.728Z,5.73
2018-11-28T19:20:55.059Z,4.87
2018-11-28T19:23:23.140Z,4.80
2018-11-28T19:25:51.645Z,4.27
2018-11-28T19:28:19.943Z,7.13
2018-11-28T19:30:48.654Z,8.17
2018-11-28T19:33:16.979Z,7.73
2018-11-28T19:35:45.190Z,6.30
2018-11-28T19:38:15.372Z,4.50
2018-11-28T19:40:51.036Z,3.50
2018-11-28T19:43:19.013Z,4.70
2018-11-28T19:45:49.331Z,3.70
2018-11-28T19:48:17.369Z,3.67
2018-11-28T19:50:45.405Z,3.87
2018-11-28T19:53:13.297Z,3.90
2018-11-28T19:55:41.916Z,3.80
2018-11-28T19:58:09.844Z,4.23
2018-11-28T20:00:39.629Z,4.30
2018-11-28T20:03:07.697Z,4.23
2018-11-28T20:05:36.049Z,3.87
2018-11-28T20:08:04.004Z,3.20
2018-11-28T20:10:32.325Z,4.80
2018-11-28T20:13:00.435Z,6.60
2018-11-28T20:15:30.181Z,6.40
2018-11-28T20:17:58.335Z,7.27
2018-11-28T20:20:27.657Z,6.70
2018-11-28T20:22:55.834Z,7.93
2018-11-28T20:25:25.345Z,7.47
2018-11-28T20:27:57.868Z,8.20
2018-11-28T20:30:27.624Z,8.17
2018-11-28T20:32:55.738Z,8.67
2018-11-28T20:35:23.885Z,9.83
2018-11-28T20:37:52.045Z,9.93
2018-11-28T20:40:20.409Z,11.13
2018-11-28T20:42:49.653Z,10.20
2018-11-28T20:45:17.907Z,4.23
2018-11-28T20:47:45.864Z,5.10
2018-11-28T20:50:20.818Z,3.10
2018-11-28T20:52:54.903Z,3.60
2018-11-28T20:55:20.997Z,3.00
2018-11-28T20:57:49.343Z,3.77
2018-11-28T21:00:22.474Z,3.40
2018-11-28T21:02:50.638Z,3.60
2018-11-28T21:05:18.703Z,4.67
2018-11-28T21:07:47.549Z,4.33
2018-11-28T21:10:21.467Z,4.00
2018-11-28T21:12:50.284Z,3.93
2018-11-28T21:15:19.099Z,4.83
2018-11-28T21:17:47.564Z,4.80
2018-11-28T21:20:20.271Z,4.53
2018-11-28T21:22:53.395Z,4.53
2018-11-28T21:25:21.490Z,4.47
2018-11-28T21:27:50.888Z,4.90
2018-11-28T21:30:19.818Z,5.63
2018-11-28T21:32:48.544Z,4.73
2018-11-28T21:35:20.389Z,4.77
2018-11-28T21:37:48.555Z,5.83
2018-11-28T21:40:16.726Z,5.20
2018-11-28T21:42:44.762Z,5.13
2018-11-28T21:45:16.956Z,5.57
2018-11-28T21:47:48.792Z,5.20
2018-11-28T21:50:17.778Z,5.10
2018-11-28T21:52:47.454Z,4.23
2018-11-28T21:55:22.951Z,5.23
2018-11-28T21:57:51.798Z,4.20
2018-11-28T22:00:20.994Z,4.47
2018-11-28T22:02:49.079Z,3.17
2018-11-28T22:05:17.198Z,4.00
2018-11-28T22:07:45.439Z,3.83
2018-11-28T22:10:21.666Z,3.53
2018-11-28T22:12:49.615Z,2.90
2018-11-28T22:15:18.165Z,3.17
2018-11-28T22:17:48.152Z,3.03
2018-11-28T22:20:16.480Z,3.30
2018-11-28T22:22:44.758Z,2.93
2018-11-28T22:25:30.985Z,2.90
2018-11-28T22:27:59.360Z,3.27
2018-11-28T22:30:28.451Z,3.40
2018-11-28T22:32:56.792Z,3.00
2018-11-28T22:35:24.754Z,3.17
2018-11-28T22:37:52.836Z,3.40
2018-11-28T22:40:22.560Z,2.80
2018-11-28T22:42:50.633Z,3.00
2018-11-28T22:45:19.744Z,2.80
2018-11-28T22:47:47.747Z,3.40
2018-11-28T22:50:15.817Z,3.00
2018-11-28T22:52:43.727Z,2.80
2018-11-28T22:55:12.603Z,3.40
2018-11-28T22:57:40.608Z,3.10
2018-11-28T23:00:12.968Z,3.50
2018-11-28T23:02:52.043Z,2.37
2018-11-28T23:05:20.555Z,3.37
2018-11-28T23:07:49.477Z,3.00
2018-11-28T23:10:17.513Z,3.37
2018-11-28T23:12:45.684Z,3.20
2018-11-28T23:15:14.136Z,3.23
2018-11-28T23:17:42.379Z,3.67
2018-11-28T23:20:10.916Z,4.10
2018-11-28T23:22:39.101Z,4.23
2018-11-28T23:25:10.935Z,4.10
2018-11-28T23:27:40.138Z,4.07
2018-11-28T23:30:13.481Z,3.33
2018-11-28T23:32:41.550Z,3.87
2018-11-28T23:35:10.435Z,3.23
2018-11-28T23:37:38.828Z,3.63
2018-11-28T23:40:12.103Z,4.37
2018-11-28T23:42:40.043Z,3.40
2018-11-28T23:45:09.799Z,2.77
2018-11-28T23:47:37.910Z,3.37
2018-11-28T23:50:10.827Z,3.07
2018-11-28T23:52:38.875Z,3.17
2018-11-28T23:55:11.155Z,2.57
2018-11-28T23:57:39.871Z,3.03
